createdAt,value
2018-06-10T00:02:02.981Z,57.20
2018-06-10T00:04:33.088Z,62.00
2018-06-10T00:07:02.670Z,60.27
2018-06-10T00:09:32.665Z,53.17
2018-06-10T00:12:02.633Z,52.23
2018-06-10T00:14:33.684Z,44.47
2018-06-10T00:17:04.167Z,44.10
2018-06-10T00:19:33.708Z,47.67
2018-06-10T00:22:10.617Z,51.37
2018-06-10T00:24:40.482Z,47.63
2018-06-10T00:27:10.418Z,46.43
2018-06-10T00:29:39.941Z,47.97
2018-06-10T00:32:09.754Z,43.53
2018-06-10T00:34:39.229Z,45.37
2018-06-10T00:37:08.744Z,43.50
2018-06-10T00:39:38.625Z,44.80
2018-06-10T00:42:08.121Z,43.73
2018-06-10T00:44:37.813Z,32.43
2018-06-10T00:47:07.682Z,14.63
2018-06-10T00:49:36.649Z,11.03
2018-06-10T00:54:40.707Z,12.20
2018-06-10T00:57:14.188Z,13.37
2018-06-10T00:59:43.869Z,15.77
2018-06-10T01:02:13.715Z,17.30
2018-06-10T01:04:43.247Z,20.13
2018-06-10T01:07:12.775Z,17.17
2018-06-10T01:09:42.606Z,18.43
2018-06-10T01:12:12.138Z,22.67
2018-06-10T01:14:52.956Z,18.87
2018-06-10T01:17:23.223Z,15.53
2018-06-10T01:20:01.694Z,13.90
2018-06-10T01:22:31.751Z,16.93
2018-06-10T01:27:44.175Z,19.30
2018-06-10T01:32:55.967Z,22.80
2018-06-10T01:35:25.499Z,21.57
2018-06-10T01:38:04.122Z,13.13
2018-06-10T01:40:36.809Z,23.57
2018-06-10T01:43:06.694Z,18.63
2018-06-10T01:45:36.314Z,18.33
2018-06-10T01:48:06.491Z,23.47
2018-06-10T01:50:37.539Z,20.50
2018-06-10T01:53:07.039Z,18.50
2018-06-10T01:55:36.543Z,19.57
2018-06-10T01:58:06.413Z,20.10
2018-06-10T02:00:35.969Z,22.90
2018-06-10T02:03:07.905Z,20.77
2018-06-10T02:05:37.683Z,23.07
2018-06-10T02:08:07.320Z,22.17
2018-06-10T02:10:36.828Z,18.50
2018-06-10T02:13:06.633Z,21.70
2018-06-10T02:15:37.512Z,20.47
2018-06-10T02:18:07.942Z,22.00
2018-06-10T02:20:37.477Z,25.70
2018-06-10T02:23:07.012Z,23.00
2018-06-10T02:25:36.530Z,21.50
2018-06-10T02:28:07.978Z,29.10
2018-06-10T02:30:37.549Z,21.73
2018-06-10T02:33:07.087Z,22.00
2018-06-10T02:35:36.960Z,23.00
2018-06-10T02:38:06.653Z,19.80
2018-06-10T02:40:37.371Z,21.90
2018-06-10T02:43:07.183Z,26.73
2018-06-10T02:45:36.653Z,20.27
2018-06-10T02:48:06.251Z,19.60
2018-06-10T02:50:36.002Z,26.20
2018-06-10T02:53:06.649Z,22.57
2018-06-10T02:55:36.050Z,23.53
2018-06-10T02:58:05.822Z,26.97
2018-06-10T03:00:35.218Z,27.83
2018-06-10T03:03:04.738Z,29.33
2018-06-10T03:05:35.223Z,30.17
2018-06-10T03:08:04.789Z,30.07
2018-06-10T03:10:34.203Z,33.70
2018-06-10T03:13:04.328Z,33.27
2018-06-10T03:15:33.691Z,38.47
2018-06-10T03:18:04.000Z,39.53
2018-06-10T03:20:34.120Z,33.87
2018-06-10T03:23:02.912Z,44.30
2018-06-10T03:25:32.300Z,43.27
2018-06-10T03:28:01.983Z,43.60
2018-06-10T03:30:31.362Z,45.47
2018-06-10T03:33:00.790Z,49.93
2018-06-10T03:35:30.483Z,51.03
2018-06-10T03:37:59.943Z,57.77
2018-06-10T03:40:29.469Z,49.93
2018-06-10T03:42:59.368Z,59.40
2018-06-10T03:45:28.812Z,53.53
2018-06-10T03:47:58.246Z,45.30
2018-06-10T03:50:27.533Z,48.33
2018-06-10T03:52:56.883Z,48.30
2018-06-10T03:55:26.270Z,43.17
2018-06-10T03:57:56.113Z,45.70
2018-06-10T04:00:29.127Z,50.77
2018-06-10T04:02:58.586Z,55.10
2018-06-10T04:05:28.073Z,51.40
2018-06-10T04:07:57.422Z,56.87
2018-06-10T04:10:27.389Z,53.43
2018-06-10T04:12:56.748Z,53.50
2018-06-10T04:15:26.118Z,51.33
2018-06-10T04:17:55.766Z,56.27
2018-06-10T04:20:25.240Z,55.13
2018-06-10T04:22:54.730Z,55.23
2018-06-10T04:25:24.475Z,57.40
2018-06-10T04:27:53.841Z,56.63
2018-06-10T04:30:23.252Z,62.00
2018-06-10T04:32:52.945Z,46.10
2018-06-10T04:35:22.369Z,49.50
2018-06-10T04:37:51.770Z,52.30
2018-06-10T04:40:21.174Z,52.47
2018-06-10T04:42:50.522Z,52.13
2018-06-10T04:45:19.970Z,49.77
2018-06-10T04:47:49.649Z,43.43
2018-06-10T04:50:18.481Z,55.07
2018-06-10T04:52:47.862Z,48.97
2018-06-10T04:55:17.602Z,48.27
2018-06-10T04:57:46.981Z,48.80
2018-06-10T05:00:16.951Z,49.70
2018-06-10T05:02:46.423Z,49.40
2018-06-10T05:05:15.998Z,48.23
2018-06-10T05:07:45.413Z,55.47
2018-06-10T05:10:15.136Z,60.53
2018-06-10T05:12:44.603Z,59.17
2018-06-10T05:15:14.000Z,57.77
2018-06-10T05:17:43.680Z,65.33
2018-06-10T05:20:13.194Z,59.10
2018-06-10T05:22:42.651Z,70.03
2018-06-10T05:25:12.395Z,72.80
2018-06-10T05:27:42.730Z,69.87
2018-06-10T05:30:12.158Z,77.13
2018-06-10T05:32:41.548Z,71.80
2018-06-10T05:35:10.997Z,77.27
2018-06-10T05:37:41.438Z,75.00
2018-06-10T05:40:10.852Z,72.13
2018-06-10T05:42:40.276Z,74.63
2018-06-10T05:45:09.997Z,67.47
2018-06-10T05:47:40.236Z,65.30
2018-06-10T05:50:10.581Z,61.07
2018-06-10T05:52:40.759Z,61.90
2018-06-10T05:55:10.718Z,66.50
2018-06-10T05:57:40.095Z,56.77
2018-06-10T06:00:09.925Z,63.87
2018-06-10T06:02:40.192Z,62.53
2018-06-10T06:05:09.567Z,47.43
2018-06-10T06:07:39.363Z,51.57
2018-06-10T06:10:08.753Z,61.00
2018-06-10T06:12:38.243Z,58.73
2018-06-10T06:15:08.994Z,62.30
2018-06-10T06:17:38.430Z,50.23
2018-06-10T06:20:07.834Z,43.43
2018-06-10T06:22:37.752Z,50.07
2018-06-10T06:25:07.216Z,48.40
2018-06-10T06:27:37.964Z,53.90
2018-06-10T06:30:07.662Z,54.00
2018-06-10T06:32:37.090Z,47.50
2018-06-10T06:35:06.452Z,47.13
2018-06-10T06:37:36.318Z,36.60
2018-06-10T06:40:07.433Z,41.50
2018-06-10T06:42:36.840Z,39.23
2018-06-10T06:45:06.585Z,40.00
2018-06-10T06:47:36.092Z,45.70
2018-06-10T06:50:05.818Z,41.23
2018-06-10T06:52:38.182Z,40.50
2018-06-10T06:55:07.774Z,33.07
2018-06-10T06:57:37.312Z,34.37
2018-06-10T07:00:07.700Z,43.00
2018-06-10T07:02:37.274Z,36.73
2018-06-10T07:05:08.671Z,28.20
2018-06-10T07:07:38.494Z,26.30
2018-06-10T07:10:08.084Z,34.00
2018-06-10T07:12:37.673Z,31.00
2018-06-10T07:15:07.573Z,29.83
2018-06-10T07:17:39.007Z,27.30
2018-06-10T07:20:08.614Z,27.90
2018-06-10T07:22:38.755Z,33.17
2018-06-10T07:25:23.041Z,26.83
2018-06-10T07:27:53.042Z,28.10
2018-06-10T07:30:22.634Z,33.57
2018-06-10T07:32:52.233Z,35.03
2018-06-10T07:35:22.156Z,28.30
2018-06-10T07:37:52.376Z,35.60
2018-06-10T07:40:22.213Z,24.97
2018-06-10T07:42:52.125Z,29.60
2018-06-10T07:45:21.729Z,27.27
2018-06-10T07:47:51.301Z,33.40
2018-06-10T07:50:21.252Z,31.43
2018-06-10T07:52:50.949Z,34.27
2018-06-10T07:55:20.544Z,37.40
2018-06-10T07:57:50.187Z,38.33
2018-06-10T08:00:20.041Z,37.07
2018-06-10T08:02:49.700Z,44.17
2018-06-10T08:05:19.059Z,40.47
2018-06-10T08:07:49.455Z,37.07
2018-06-10T08:10:19.667Z,43.53
2018-06-10T08:12:49.897Z,41.17
2018-06-10T08:15:19.580Z,44.33
2018-06-10T08:17:49.388Z,40.33
2018-06-10T08:20:21.798Z,39.17
2018-06-10T08:22:51.469Z,41.90
2018-06-10T08:25:21.086Z,46.10
2018-06-10T08:27:51.123Z,40.10
2018-06-10T08:30:20.960Z,41.93
2018-06-10T08:33:08.946Z,41.20
2018-06-10T08:35:39.106Z,38.03
2018-06-10T08:38:09.464Z,37.03
2018-06-10T08:40:41.963Z,37.47
2018-06-10T08:43:14.052Z,43.23
2018-06-10T08:45:43.691Z,40.97
2018-06-10T08:48:14.021Z,43.60
2018-06-10T08:50:44.026Z,36.93
2018-06-10T08:53:13.831Z,37.60
2018-06-10T08:55:44.026Z,40.90
2018-06-10T08:58:13.941Z,37.17
2018-06-10T09:00:43.650Z,40.60
2018-06-10T09:03:13.590Z,45.57
2018-06-10T09:05:43.301Z,54.60
2018-06-10T09:08:13.829Z,49.33
2018-06-10T09:10:43.478Z,47.70
2018-06-10T09:13:13.291Z,44.90
2018-06-10T09:15:43.633Z,48.60
2018-06-10T09:18:13.318Z,51.67
2018-06-10T09:20:42.953Z,52.93
2018-06-10T09:23:15.546Z,60.27
2018-06-10T09:25:45.412Z,59.00
2018-06-10T09:28:16.323Z,60.60
2018-06-10T09:30:47.491Z,61.20
2018-06-10T09:33:35.287Z,64.00
2018-06-10T09:36:05.783Z,69.13
2018-06-10T09:38:36.203Z,84.07
2018-06-10T09:41:14.362Z,72.50
2018-06-10T09:43:46.252Z,69.37
2018-06-10T09:46:17.717Z,69.63
2018-06-10T09:49:08.151Z,54.90
2018-06-10T09:51:43.826Z,126.37
2018-06-10T09:54:22.065Z,59.87
2018-06-10T09:56:53.887Z,59.87
2018-06-10T09:59:23.992Z,62.00
2018-06-10T10:01:54.574Z,65.63
2018-06-10T10:04:27.926Z,64.07
2018-06-10T10:06:58.990Z,62.10
2018-06-10T10:09:29.701Z,63.07
2018-06-10T10:11:59.249Z,74.23
2018-06-10T10:14:28.824Z,72.40
2018-06-10T10:16:58.936Z,75.00
2018-06-10T10:19:28.754Z,72.40
2018-06-10T10:21:58.400Z,77.33
2018-06-10T10:24:28.114Z,86.00
2018-06-10T10:26:57.642Z,80.23
2018-06-10T10:29:27.332Z,88.83
2018-06-10T10:31:57.313Z,98.33
2018-06-10T10:34:27.508Z,101.53
2018-06-10T10:36:57.685Z,123.93
2018-06-10T10:39:28.017Z,113.30
2018-06-10T10:41:57.785Z,113.33
2018-06-10T10:44:27.574Z,110.20
2018-06-10T10:46:57.364Z,117.00
2018-06-10T10:49:27.625Z,113.73
2018-06-10T10:51:58.088Z,119.50
2018-06-10T10:54:28.327Z,115.50
2018-06-10T10:56:58.658Z,108.63
2018-06-10T10:59:28.638Z,123.83
2018-06-10T11:01:59.289Z,121.83
2018-06-10T11:04:28.907Z,121.03
2018-06-10T11:06:58.833Z,122.97
2018-06-10T11:09:28.774Z,117.40
2018-06-10T11:11:58.637Z,120.93
2018-06-10T11:14:28.077Z,111.67
2018-06-10T11:16:59.153Z,108.60
2018-06-10T11:19:36.381Z,115.40
2018-06-10T11:22:06.563Z,113.23
2018-06-10T11:24:40.495Z,97.00
2018-06-10T11:27:14.338Z,152.93
2018-06-10T11:29:46.679Z,104.17
2018-06-10T11:32:17.279Z,101.63
2018-06-10T11:34:50.051Z,109.20
2018-06-10T11:37:20.581Z,98.47
2018-06-10T11:39:49.726Z,98.70
2018-06-10T11:42:23.584Z,102.53
2018-06-10T11:44:53.941Z,98.10
2018-06-10T11:47:24.349Z,89.47
2018-06-10T11:49:53.861Z,82.00
2018-06-10T11:52:23.565Z,87.07
2018-06-10T11:54:53.840Z,85.97
2018-06-10T11:57:24.617Z,85.63
2018-06-10T11:59:54.833Z,83.83
2018-06-10T12:02:29.238Z,84.03
2018-06-10T12:05:02.350Z,77.70
2018-06-10T12:07:31.980Z,84.93
2018-06-10T12:10:01.543Z,85.90
2018-06-10T12:12:31.715Z,91.53
2018-06-10T12:15:02.385Z,81.90
2018-06-10T12:17:35.577Z,81.73
2018-06-10T12:20:05.518Z,92.20
2018-06-10T12:22:35.577Z,88.67
2018-06-10T12:25:05.271Z,90.27
2018-06-10T12:27:35.575Z,86.37
2018-06-10T12:30:07.446Z,87.23
2018-06-10T12:32:37.763Z,84.60
2018-06-10T12:35:07.545Z,89.27
2018-06-10T12:37:37.166Z,98.40
2018-06-10T12:40:07.441Z,86.00
2018-06-10T12:42:38.197Z,81.60
2018-06-10T12:45:08.154Z,88.77
2018-06-10T12:47:37.994Z,81.43
2018-06-10T12:50:07.531Z,85.33
2018-06-10T12:52:37.013Z,70.63
2018-06-10T12:58:37.981Z,73.03
2018-06-10T13:01:17.705Z,68.60
2018-06-10T13:03:52.436Z,68.63
2018-06-10T13:06:22.763Z,74.10
2018-06-10T13:08:52.876Z,70.33
2018-06-10T13:11:24.597Z,70.57
2018-06-10T13:14:14.415Z,75.53
2018-06-10T13:16:44.377Z,75.00
2018-06-10T13:19:23.458Z,74.27
2018-06-10T13:21:53.319Z,78.90
2018-06-10T13:24:24.791Z,75.07
2018-06-10T13:27:01.839Z,72.00
2018-06-10T13:29:31.473Z,77.73
2018-06-10T13:32:01.462Z,71.80
2018-06-10T13:34:31.210Z,80.00
2018-06-10T13:37:02.656Z,82.57
2018-06-10T13:39:32.696Z,80.57
2018-06-10T13:42:02.945Z,79.90
2018-06-10T13:44:32.877Z,76.07
2018-06-10T13:47:03.031Z,77.20
2018-06-10T13:49:35.082Z,81.50
2018-06-10T13:52:04.662Z,82.97
2018-06-10T13:54:34.884Z,83.13
2018-06-10T13:57:05.503Z,83.70
2018-06-10T13:59:36.399Z,88.53
2018-06-10T14:02:06.201Z,82.97
2018-06-10T14:04:35.846Z,82.80
2018-06-10T14:07:05.862Z,83.17
2018-06-10T14:09:38.973Z,75.50
2018-06-10T14:14:44.231Z,84.37
2018-06-10T14:17:14.111Z,84.43
2018-06-10T14:19:43.677Z,77.67
2018-06-10T14:22:13.844Z,82.33
2018-06-10T14:24:43.910Z,75.87
2018-06-10T14:27:14.633Z,80.33
2018-06-10T14:29:45.461Z,74.30
2018-06-10T14:32:15.184Z,79.47
2018-06-10T14:34:44.860Z,79.07
2018-06-10T14:37:14.802Z,79.10
2018-06-10T14:39:44.487Z,78.60
2018-06-10T14:42:14.089Z,79.23
2018-06-10T14:44:44.017Z,74.57
2018-06-10T14:47:13.785Z,74.47
2018-06-10T14:49:44.197Z,79.13
2018-06-10T14:52:14.697Z,82.90
2018-06-10T14:54:44.923Z,76.97
2018-06-10T14:57:14.908Z,83.37
2018-06-10T14:59:45.393Z,69.30
2018-06-10T15:02:15.237Z,76.17
2018-06-10T15:04:44.861Z,66.57
2018-06-10T15:07:14.915Z,73.80
2018-06-10T15:09:44.573Z,69.73
2018-06-10T15:12:13.651Z,65.80
2018-06-10T15:14:43.225Z,60.20
2018-06-10T15:17:12.871Z,63.53
2018-06-10T15:19:42.755Z,58.93
2018-06-10T15:22:12.930Z,53.60
2018-06-10T15:24:42.693Z,47.70
2018-06-10T15:27:12.698Z,46.93
2018-06-10T15:29:42.883Z,42.67
2018-06-10T15:32:12.715Z,47.50
2018-06-10T15:34:42.207Z,38.40
2018-06-10T15:37:12.362Z,36.63
2018-06-10T15:39:46.262Z,36.80
2018-06-10T15:42:15.950Z,32.80
2018-06-10T15:44:48.548Z,29.57
2018-06-10T15:47:23.751Z,28.10
2018-06-10T15:49:53.573Z,28.77
2018-06-10T15:52:24.047Z,29.00
2018-06-10T15:54:53.494Z,28.13
2018-06-10T15:57:23.318Z,34.63
2018-06-10T15:59:52.746Z,25.80
2018-06-10T16:02:26.349Z,27.47
2018-06-10T16:04:56.131Z,37.63
2018-06-10T16:07:25.619Z,29.43
2018-06-10T16:09:55.067Z,32.10
2018-06-10T16:12:24.918Z,28.33
2018-06-10T16:14:54.378Z,28.50
2018-06-10T16:17:23.895Z,30.40
2018-06-10T16:19:53.704Z,26.50
2018-06-10T16:22:23.885Z,32.23
2018-06-10T16:24:53.408Z,37.40
2018-06-10T16:27:24.484Z,32.00
2018-06-10T16:29:54.130Z,30.83
2018-06-10T16:32:23.720Z,34.10
2018-06-10T16:34:53.803Z,39.37
2018-06-10T16:37:23.605Z,40.10
2018-06-10T16:39:53.084Z,41.80
2018-06-10T16:42:24.211Z,36.63
2018-06-10T16:44:53.713Z,38.20
2018-06-10T16:47:23.879Z,44.07
2018-06-10T16:49:54.201Z,37.20
2018-06-10T16:52:23.687Z,35.87
2018-06-10T16:54:53.149Z,35.60
2018-06-10T16:57:22.885Z,34.97
2018-06-10T16:59:52.259Z,35.27
2018-06-10T17:02:22.044Z,33.67
2018-06-10T17:04:51.845Z,33.33
2018-06-10T17:07:35.174Z,33.30
2018-06-10T17:10:06.065Z,36.10
2018-06-10T17:12:37.009Z,31.60
2018-06-10T17:15:07.465Z,33.90
2018-06-10T17:17:37.504Z,30.50
2018-06-10T17:20:07.472Z,30.07
2018-06-10T17:22:38.275Z,32.23
2018-06-10T17:25:16.271Z,30.27
2018-06-10T17:27:47.111Z,33.20
2018-06-10T17:30:19.489Z,31.03
2018-06-10T17:32:50.386Z,32.50
2018-06-10T17:35:22.001Z,34.20
2018-06-10T17:37:57.418Z,35.17
2018-06-10T17:40:37.426Z,33.17
2018-06-10T17:43:12.016Z,34.37
2018-06-10T17:45:46.691Z,34.77
2018-06-10T17:48:27.701Z,36.37
2018-06-10T17:50:57.573Z,34.50
2018-06-10T17:53:28.390Z,37.17
2018-06-10T17:55:59.545Z,38.63
2018-06-10T17:58:33.343Z,36.13
2018-06-10T18:01:12.987Z,33.47
2018-06-10T18:03:48.770Z,41.77
2018-06-10T18:06:21.622Z,34.60
2018-06-10T18:09:22.586Z,36.23
2018-06-10T18:11:52.124Z,34.30
2018-06-10T18:14:24.093Z,35.67
2018-06-10T18:16:53.749Z,38.83
2018-06-10T18:19:23.684Z,33.73
2018-06-10T18:21:56.123Z,34.03
2018-06-10T18:24:31.690Z,35.57
2018-06-10T18:27:06.075Z,35.00
2018-06-10T18:29:36.808Z,31.90
2018-06-10T18:32:12.979Z,33.70
2018-06-10T18:34:45.373Z,31.07
2018-06-10T18:37:50.453Z,32.10
2018-06-10T18:40:24.452Z,32.80
2018-06-10T18:43:02.303Z,31.30
2018-06-10T18:45:47.322Z,33.43
2018-06-10T18:48:21.808Z,32.40
2018-06-10T18:50:52.190Z,37.97
2018-06-10T18:53:22.294Z,35.33
2018-06-10T18:55:53.149Z,35.40
2018-06-10T18:58:24.552Z,33.07
2018-06-10T19:00:54.946Z,37.03
2018-06-10T19:03:25.114Z,36.07
2018-06-10T19:05:55.305Z,39.70
2018-06-10T19:08:30.136Z,36.43
2018-06-10T19:11:00.311Z,36.60
2018-06-10T19:13:31.737Z,35.57
2018-06-10T19:18:46.664Z,36.00
2018-06-10T19:25:26.530Z,38.07
2018-06-10T19:27:57.894Z,37.07
2018-06-10T19:30:41.147Z,35.07
2018-06-10T19:33:24.470Z,41.10
2018-06-10T19:35:59.802Z,35.43
2018-06-10T19:38:34.290Z,35.60
2018-06-10T19:41:06.480Z,36.60
2018-06-10T19:43:40.415Z,37.07
2018-06-10T19:46:13.605Z,35.03
2018-06-10T19:48:45.061Z,37.87
2018-06-10T19:51:15.494Z,33.47
2018-06-10T19:53:57.941Z,36.50
2018-06-10T19:56:28.299Z,38.13
2018-06-10T19:58:58.860Z,34.23
2018-06-10T20:01:30.097Z,35.70
2018-06-10T20:03:59.821Z,36.90
2018-06-10T20:06:33.666Z,35.90
2018-06-10T20:09:04.354Z,34.63
2018-06-10T20:11:34.267Z,37.00
2018-06-10T20:14:03.796Z,41.97
2018-06-10T20:16:33.964Z,40.47
2018-06-10T20:19:04.772Z,41.80
2018-06-10T20:21:35.663Z,43.20
2018-06-10T20:24:05.130Z,38.53
2018-06-10T20:26:34.465Z,36.40
2018-06-10T20:29:03.966Z,41.37
2018-06-10T20:34:07.356Z,38.77
2018-06-10T20:36:39.050Z,45.13
2018-06-10T20:39:10.767Z,40.00
2018-06-10T20:41:42.942Z,44.63
2018-06-10T20:44:14.090Z,39.63
2018-06-10T20:46:46.266Z,38.73
2018-06-10T20:49:16.163Z,35.57
2018-06-10T20:54:22.594Z,34.97
2018-06-10T20:56:52.628Z,35.03
2018-06-10T20:59:30.126Z,35.13
2018-06-10T21:02:01.712Z,36.83
2018-06-10T21:04:31.554Z,45.00
2018-06-10T21:07:01.994Z,43.67
2018-06-10T21:09:32.167Z,38.07
2018-06-10T21:12:01.969Z,39.80
2018-06-10T21:14:32.585Z,43.10
2018-06-10T21:17:02.239Z,38.60
2018-06-10T21:19:32.354Z,35.67
2018-06-10T21:24:35.562Z,44.83
2018-06-10T21:27:06.176Z,35.30
2018-06-10T21:32:23.991Z,41.70
2018-06-10T21:34:53.939Z,36.03
2018-06-10T21:37:24.212Z,35.10
2018-06-10T21:39:53.800Z,37.30
2018-06-10T21:42:23.548Z,36.93
2018-06-10T21:44:53.315Z,36.70
2018-06-10T21:47:23.131Z,38.80
2018-06-10T21:49:52.815Z,37.70
2018-06-10T21:52:22.287Z,36.90
2018-06-10T21:54:51.888Z,34.60
2018-06-10T21:57:22.093Z,35.63
2018-06-10T21:59:51.755Z,43.37
2018-06-10T22:02:22.240Z,38.70
2018-06-10T22:04:52.465Z,41.50
2018-06-10T22:07:21.979Z,37.77
2018-06-10T22:09:51.529Z,36.57
2018-06-10T22:12:21.768Z,36.17
2018-06-10T22:14:52.141Z,37.27
2018-06-10T22:17:21.957Z,36.37
2018-06-10T22:19:51.972Z,34.07
2018-06-10T22:22:21.702Z,36.33
2018-06-10T22:24:51.397Z,32.00
2018-06-10T22:27:21.525Z,33.47
2018-06-10T22:29:51.142Z,36.47
2018-06-10T22:32:20.807Z,34.60
2018-06-10T22:34:50.627Z,34.73
2018-06-10T22:37:20.330Z,34.53
2018-06-10T22:39:49.850Z,35.23
2018-06-10T22:42:19.683Z,34.17
2018-06-10T22:44:49.227Z,38.40
2018-06-10T22:47:18.632Z,33.63
2018-06-10T22:49:48.497Z,36.87
2018-06-10T22:52:17.966Z,34.23
2018-06-10T22:54:50.840Z,36.50
2018-06-10T22:57:20.740Z,35.27
2018-06-10T22:59:54.704Z,35.93
2018-06-10T23:02:24.836Z,37.90
2018-06-10T23:04:55.160Z,34.50
2018-06-10T23:07:24.722Z,35.20
2018-06-10T23:09:53.701Z,35.87
2018-06-10T23:12:23.653Z,37.03
2018-06-10T23:14:53.234Z,33.67
2018-06-10T23:17:23.087Z,35.37
2018-06-10T23:19:52.920Z,37.03
2018-06-10T23:22:22.507Z,35.93
2018-06-10T23:27:26.667Z,36.67
2018-06-10T23:29:56.583Z,37.23
2018-06-10T23:32:26.311Z,37.60
2018-06-10T23:34:56.275Z,38.30
2018-06-10T23:37:29.510Z,37.53
2018-06-10T23:40:00.388Z,41.23
2018-06-10T23:42:29.896Z,40.63
2018-06-10T23:44:59.709Z,39.50
2018-06-10T23:47:29.387Z,43.30
2018-06-10T23:49:59.317Z,48.23
2018-06-10T23:52:28.919Z,50.67
2018-06-10T23:55:19.548Z,45.57
2018-06-10T23:57:49.533Z,46.27
